createdAt,value
2024-04-06T00:02:22.886Z,6.40
2024-04-06T00:04:58.371Z,5.40
2024-04-06T00:07:30.231Z,8.10
2024-04-06T00:10:01.088Z,5.70
2024-04-06T00:12:33.033Z,5.30
2024-04-06T00:15:03.933Z,6.50
2024-04-06T00:17:37.074Z,4.70
2024-04-06T00:20:08.298Z,4.40
2024-04-06T00:22:39.970Z,5.20
2024-04-06T00:25:15.807Z,5.20
2024-04-06T00:27:46.543Z,5.30
2024-04-06T00:30:18.006Z,5.60
2024-04-06T00:32:48.421Z,5.50
2024-04-06T00:35:19.890Z,6.40
2024-04-06T00:37:50.507Z,5.80
2024-04-06T00:40:22.668Z,5.40
2024-04-06T00:42:53.210Z,5.00
2024-04-06T00:45:24.855Z,6.90
2024-04-06T00:47:55.590Z,5.70
2024-04-06T00:50:27.400Z,4.90
2024-04-06T00:52:57.978Z,5.10
2024-04-06T00:55:30.004Z,6.70
2024-04-06T00:58:00.372Z,6.70
2024-04-06T01:00:32.148Z,6.40
2024-04-06T01:03:02.659Z,6.70
2024-04-06T01:05:34.522Z,6.80
2024-04-06T01:08:05.344Z,5.00
2024-04-06T01:10:36.903Z,4.20
2024-04-06T01:13:07.638Z,3.80
2024-04-06T01:15:39.404Z,3.90
2024-04-06T01:18:10.127Z,4.70
2024-04-06T01:20:45.167Z,4.10
2024-04-06T01:23:17.939Z,4.60
2024-04-06T01:25:48.479Z,3.40
2024-04-06T01:28:20.137Z,3.70
2024-04-06T01:30:50.464Z,3.90
2024-04-06T01:33:22.315Z,3.20
2024-04-06T01:35:52.636Z,3.70
2024-04-06T01:38:24.363Z,4.20
2024-04-06T01:40:54.827Z,4.30
2024-04-06T01:43:27.284Z,3.70
2024-04-06T01:45:57.731Z,3.70
2024-04-06T01:48:29.184Z,3.40
2024-04-06T01:51:00.115Z,4.50
2024-04-06T01:53:31.918Z,4.30
2024-04-06T01:56:02.408Z,3.80
2024-04-06T01:58:33.755Z,4.70
2024-04-06T02:01:04.787Z,3.50
2024-04-06T02:03:36.550Z,5.90
2024-04-06T02:06:10.669Z,4.30
2024-04-06T02:08:42.215Z,4.70
2024-04-06T02:11:12.746Z,3.30
2024-04-06T02:13:45.327Z,4.00
2024-04-06T02:16:17.833Z,3.90
2024-04-06T02:18:49.446Z,3.60
2024-04-06T02:21:20.088Z,4.10
2024-04-06T02:23:51.641Z,3.00
2024-04-06T02:26:22.293Z,3.20
2024-04-06T02:28:53.819Z,3.60
2024-04-06T02:31:24.549Z,3.90
2024-04-06T02:33:56.104Z,3.80
2024-04-06T02:36:26.736Z,3.30
2024-04-06T02:38:58.385Z,3.40
2024-04-06T02:41:28.932Z,4.10
2024-04-06T02:44:00.873Z,2.50
2024-04-06T02:46:31.203Z,3.30
2024-04-06T02:49:03.271Z,3.10
2024-04-06T02:51:33.693Z,2.40
2024-04-06T02:54:05.756Z,2.70
2024-04-06T02:56:36.086Z,3.30
2024-04-06T02:59:08.455Z,2.50
2024-04-06T03:01:40.032Z,2.60
2024-04-06T03:04:11.664Z,3.30
2024-04-06T03:06:42.195Z,3.40
2024-04-06T03:09:14.456Z,2.00
2024-04-06T03:11:44.780Z,2.90
2024-04-06T03:14:16.243Z,3.40
2024-04-06T03:16:47.388Z,3.10
2024-04-06T03:19:19.145Z,3.70
2024-04-06T03:21:49.570Z,2.90
2024-04-06T03:24:21.218Z,5.90
2024-04-06T03:26:52.373Z,2.90
2024-04-06T03:29:24.125Z,3.80
2024-04-06T03:31:54.344Z,4.00
2024-04-06T03:34:26.524Z,2.50
2024-04-06T03:36:56.937Z,3.20
2024-04-06T03:39:28.697Z,2.60
2024-04-06T03:41:59.120Z,5.40
2024-04-06T03:44:30.913Z,2.40
2024-04-06T03:47:01.093Z,3.00
2024-04-06T03:49:32.654Z,3.50
2024-04-06T03:52:03.597Z,4.10
2024-04-06T03:54:35.353Z,3.60
2024-04-06T03:57:05.683Z,3.50
2024-04-06T03:59:37.549Z,3.30
2024-04-06T04:02:07.759Z,5.40
2024-04-06T04:04:39.824Z,5.20
2024-04-06T04:07:10.143Z,2.90
2024-04-06T04:09:41.799Z,3.30
2024-04-06T04:12:12.133Z,6.70
2024-04-06T04:14:43.700Z,7.80
2024-04-06T04:17:14.407Z,6.30
2024-04-06T04:19:46.368Z,6.00
2024-04-06T04:22:16.808Z,5.50
2024-04-06T04:24:48.272Z,5.10
2024-04-06T04:27:19.710Z,4.80
2024-04-06T04:29:52.193Z,3.20
2024-04-06T04:32:22.703Z,4.20
2024-04-06T04:34:54.572Z,5.80
2024-04-06T04:37:25.005Z,3.30
2024-04-06T04:39:56.851Z,3.10
2024-04-06T04:42:27.281Z,3.30
2024-04-06T04:45:00.877Z,7.20
2024-04-06T04:47:31.365Z,4.20
2024-04-06T04:52:35.241Z,5.10
2024-04-06T04:55:07.410Z,4.40
2024-04-06T04:57:37.927Z,6.70
2024-04-06T05:00:11.065Z,5.90
2024-04-06T05:02:41.349Z,7.00
2024-04-06T05:05:13.209Z,5.40
2024-04-06T05:07:44.244Z,5.70
2024-04-06T05:10:16.014Z,5.00
2024-04-06T05:12:46.328Z,5.40
2024-04-06T05:15:17.782Z,6.20
2024-04-06T05:17:48.315Z,4.50
2024-04-06T05:20:19.759Z,6.80
2024-04-06T05:22:50.655Z,5.30
2024-04-06T05:25:22.246Z,4.90
2024-04-06T05:27:52.790Z,5.70
2024-04-06T05:30:24.228Z,4.00
2024-04-06T05:32:54.762Z,4.10
2024-04-06T05:35:26.208Z,4.20
2024-04-06T05:37:56.750Z,2.80
2024-04-06T05:40:28.291Z,4.70
2024-04-06T05:42:58.823Z,3.30
2024-04-06T05:45:30.366Z,5.30
2024-04-06T05:48:06.945Z,5.60
2024-04-06T05:50:39.401Z,3.10
2024-04-06T05:53:09.834Z,3.80
2024-04-06T05:55:41.399Z,2.90
2024-04-06T05:58:11.818Z,5.00
2024-04-06T06:00:43.489Z,3.00
2024-04-06T06:03:14.025Z,4.10
2024-04-06T06:05:45.757Z,3.60
2024-04-06T06:08:16.715Z,4.30
2024-04-06T06:10:48.471Z,6.20
2024-04-06T06:13:18.899Z,4.40
2024-04-06T06:15:50.851Z,6.10
2024-04-06T06:18:21.382Z,6.60
2024-04-06T06:20:53.033Z,5.10
2024-04-06T06:23:23.573Z,4.70
2024-04-06T06:25:55.114Z,4.80
2024-04-06T06:28:25.781Z,4.50
2024-04-06T06:30:57.618Z,4.30
2024-04-06T06:33:28.453Z,4.60
2024-04-06T06:40:41.010Z,4.00
2024-04-06T06:41:27.373Z,4.00
2024-04-06T06:43:57.690Z,3.10
2024-04-06T06:46:29.761Z,2.10
2024-04-06T06:49:00.415Z,3.60
2024-04-06T06:51:32.761Z,5.10
2024-04-06T06:54:04.140Z,4.20
2024-04-06T06:56:35.876Z,4.00
2024-04-06T06:59:06.295Z,4.80
2024-04-06T07:01:39.767Z,4.10
2024-04-06T07:04:10.997Z,3.30
2024-04-06T07:09:18.766Z,8.30
2024-04-06T07:11:49.079Z,3.30
2024-04-06T07:14:20.741Z,6.00
2024-04-06T07:16:51.056Z,4.80
2024-04-06T07:19:23.030Z,4.60
2024-04-06T07:21:53.342Z,3.10
2024-04-06T07:24:25.311Z,3.10
2024-04-06T07:26:55.533Z,4.80
2024-04-06T07:29:27.394Z,3.50
2024-04-06T07:31:57.621Z,2.30
2024-04-06T07:34:29.682Z,2.60
2024-04-06T07:36:59.794Z,3.40
2024-04-06T07:39:31.759Z,3.00
2024-04-06T07:42:02.083Z,3.80
2024-04-06T07:44:33.842Z,5.00
2024-04-06T07:47:04.670Z,3.50
2024-04-06T07:49:36.647Z,4.00
2024-04-06T07:52:07.277Z,3.40
2024-04-06T07:54:39.229Z,3.60
2024-04-06T07:57:09.759Z,3.80
2024-04-06T07:59:42.644Z,4.40
2024-04-06T08:02:13.602Z,4.00
2024-04-06T08:04:46.274Z,4.00
2024-04-06T08:07:16.726Z,3.40
2024-04-06T08:09:48.453Z,3.10
2024-04-06T08:12:18.979Z,5.00
2024-04-06T08:14:50.861Z,4.10
2024-04-06T08:17:21.571Z,4.90
2024-04-06T08:19:53.455Z,3.10
2024-04-06T08:22:23.952Z,2.60
2024-04-06T08:24:56.134Z,4.70
2024-04-06T08:27:26.960Z,3.50
2024-04-06T08:29:58.725Z,2.90
2024-04-06T08:32:29.898Z,3.90
2024-04-06T08:35:01.831Z,3.70
2024-04-06T08:37:32.260Z,3.50
2024-04-06T08:40:03.928Z,3.80
2024-04-06T08:42:45.396Z,3.70
2024-04-06T08:45:17.670Z,2.50
2024-04-06T08:47:48.087Z,2.80
2024-04-06T08:50:21.282Z,3.40
2024-04-06T08:52:55.399Z,4.00
2024-04-06T08:55:25.728Z,11.30
2024-04-06T08:57:57.575Z,3.30
2024-04-06T09:00:28.537Z,2.40
2024-04-06T09:03:00.282Z,3.80
2024-04-06T09:05:30.922Z,3.20
2024-04-06T09:08:02.459Z,3.50
2024-04-06T09:10:33.292Z,3.10
2024-04-06T09:13:04.964Z,6.60
2024-04-06T09:15:36.631Z,3.10
2024-04-06T09:18:08.676Z,4.10
2024-04-06T09:20:39.092Z,3.90
2024-04-06T09:23:10.648Z,3.30
2024-04-06T09:25:41.703Z,6.20
2024-04-06T09:28:14.932Z,5.00
2024-04-06T09:30:45.517Z,3.90
2024-04-06T09:33:16.970Z,3.60
2024-04-06T09:35:47.696Z,6.40
2024-04-06T09:38:20.718Z,4.00
2024-04-06T09:40:52.340Z,3.70
2024-04-06T09:43:25.018Z,7.60
2024-04-06T09:45:55.442Z,4.40
2024-04-06T09:48:27.000Z,4.20
2024-04-06T09:50:58.290Z,7.30
2024-04-06T09:53:30.209Z,5.70
2024-04-06T09:56:00.833Z,4.80
2024-04-06T09:58:34.748Z,3.00
2024-04-06T10:01:13.218Z,3.90
2024-04-06T10:03:46.953Z,3.50
2024-04-06T10:06:18.315Z,9.00
2024-04-06T10:08:53.616Z,5.10
2024-04-06T10:11:25.928Z,6.20
2024-04-06T10:14:00.195Z,6.80
2024-04-06T10:16:33.638Z,13.60
2024-04-06T10:19:04.027Z,3.00
2024-04-06T10:21:36.743Z,5.30
2024-04-06T10:24:13.907Z,9.10
2024-04-06T10:26:50.705Z,5.00
2024-04-06T10:29:22.357Z,5.60
2024-04-06T10:31:52.927Z,3.50
2024-04-06T10:34:27.400Z,3.40
2024-04-06T10:37:02.960Z,3.60
2024-04-06T10:39:33.384Z,3.50
2024-04-06T10:42:08.423Z,4.20
2024-04-06T10:44:41.515Z,3.20
2024-04-06T10:47:12.453Z,3.60
2024-04-06T10:49:47.810Z,3.50
2024-04-06T10:52:20.111Z,3.30
2024-04-06T10:54:50.936Z,3.80
2024-04-06T10:57:23.843Z,3.20
2024-04-06T10:59:54.104Z,3.80
2024-04-06T11:02:26.071Z,3.60
2024-04-06T11:04:57.959Z,3.20
2024-04-06T11:07:30.109Z,2.50
2024-04-06T11:10:00.522Z,4.30
2024-04-06T11:12:33.424Z,2.90
2024-04-06T11:15:05.377Z,4.60
2024-04-06T11:17:37.032Z,5.40
2024-04-06T11:20:08.302Z,3.40
2024-04-06T11:22:40.442Z,3.40
2024-04-06T11:25:17.172Z,4.30
2024-04-06T11:27:49.483Z,3.30
2024-04-06T11:30:20.699Z,4.20
2024-04-06T11:32:53.408Z,3.30
2024-04-06T11:35:23.840Z,3.30
2024-04-06T11:37:55.280Z,4.20
2024-04-06T11:40:26.022Z,6.20
2024-04-06T11:42:57.462Z,3.30
2024-04-06T11:45:28.211Z,4.40
2024-04-06T11:47:59.960Z,3.00
2024-04-06T11:50:30.391Z,4.70
2024-04-06T11:53:02.046Z,4.40
2024-04-06T11:55:32.770Z,4.80
2024-04-06T11:58:05.458Z,3.20
2024-04-06T12:00:35.792Z,3.80
2024-04-06T12:03:07.706Z,2.60
2024-04-06T12:05:38.179Z,3.30
2024-04-06T12:08:09.826Z,5.30
2024-04-06T12:10:40.597Z,3.70
2024-04-06T12:13:12.418Z,3.40
2024-04-06T12:15:42.840Z,3.50
2024-04-06T12:18:14.600Z,3.70
2024-04-06T12:20:45.337Z,4.80
2024-04-06T12:23:17.009Z,2.40
2024-04-06T12:25:47.618Z,4.70
2024-04-06T12:28:19.813Z,4.10
2024-04-06T12:30:50.422Z,2.70
2024-04-06T12:33:22.182Z,4.20
2024-04-06T12:35:53.664Z,3.50
2024-04-06T12:38:25.486Z,3.70
2024-04-06T12:40:56.631Z,3.40
2024-04-06T12:43:28.495Z,5.70
2024-04-06T12:45:58.919Z,5.70
2024-04-06T12:48:30.807Z,3.40
2024-04-06T12:51:02.447Z,4.30
2024-04-06T12:56:05.034Z,3.50
2024-04-06T12:58:36.588Z,5.20
2024-04-06T13:01:06.921Z,3.00
2024-04-06T13:03:49.193Z,3.90
2024-04-06T13:06:28.447Z,4.10
2024-04-06T13:08:58.867Z,3.40
2024-04-06T13:11:30.524Z,3.00
2024-04-06T13:14:01.256Z,3.50
2024-04-06T13:16:33.230Z,3.30
2024-04-06T13:19:04.271Z,3.20
2024-04-06T13:21:36.034Z,3.40
2024-04-06T13:24:06.915Z,3.40
2024-04-06T13:26:39.128Z,2.90
2024-04-06T13:29:10.617Z,3.50
2024-04-06T13:31:42.542Z,4.00
2024-04-06T13:34:12.959Z,3.10
2024-04-06T13:36:44.715Z,6.60
2024-04-06T13:39:14.943Z,3.20
2024-04-06T13:41:48.289Z,3.00
2024-04-06T13:44:18.461Z,4.20
2024-04-06T13:46:50.427Z,3.50
2024-04-06T13:49:20.972Z,3.90
2024-04-06T13:51:52.811Z,3.10
2024-04-06T13:54:23.029Z,4.60
2024-04-06T13:56:54.789Z,3.30
2024-04-06T13:59:25.014Z,3.70
2024-04-06T14:01:57.183Z,3.60
2024-04-06T14:04:27.728Z,3.40
2024-04-06T14:06:59.372Z,4.00
2024-04-06T14:09:30.828Z,3.10
2024-04-06T14:12:05.246Z,5.60
2024-04-06T14:14:37.918Z,4.90
2024-04-06T14:17:08.492Z,3.40
2024-04-06T14:19:41.015Z,4.90
2024-04-06T14:22:11.444Z,4.50
2024-04-06T14:24:43.108Z,7.80
2024-04-06T14:27:13.641Z,5.00
2024-04-06T14:29:45.602Z,4.70
2024-04-06T14:32:16.238Z,3.90
2024-04-06T14:34:48.201Z,4.10
2024-04-06T14:37:18.867Z,5.00
2024-04-06T14:39:51.103Z,4.50
2024-04-06T14:42:21.521Z,4.50
2024-04-06T14:44:53.375Z,4.10
2024-04-06T14:47:24.023Z,4.50
2024-04-06T14:49:55.763Z,4.10
2024-04-06T14:52:26.239Z,5.10
2024-04-06T14:54:59.793Z,4.30
2024-04-06T14:57:30.321Z,4.70
2024-04-06T15:00:05.989Z,5.50
2024-04-06T15:02:37.525Z,5.10
2024-04-06T15:05:09.090Z,3.30
2024-04-06T15:07:40.554Z,3.60
2024-04-06T15:10:11.173Z,4.40
2024-04-06T15:12:42.710Z,4.80
2024-04-06T15:15:13.442Z,3.10
2024-04-06T15:17:44.898Z,5.00
2024-04-06T15:20:15.423Z,4.40
2024-04-06T15:22:47.190Z,5.20
2024-04-06T15:25:19.161Z,4.50
2024-04-06T15:27:51.001Z,4.20
2024-04-06T15:30:21.426Z,3.40
2024-04-06T15:32:53.093Z,3.00
2024-04-06T15:35:24.135Z,3.20
2024-04-06T15:37:55.791Z,6.50
2024-04-06T15:40:26.579Z,4.70
2024-04-06T15:42:58.487Z,3.30
2024-04-06T15:45:29.021Z,5.20
2024-04-06T15:50:32.633Z,3.50
2024-04-06T15:53:04.794Z,4.10
2024-04-06T15:55:36.350Z,4.60
2024-04-06T15:58:08.318Z,4.50
2024-04-06T16:00:38.841Z,4.20
2024-04-06T16:03:11.112Z,5.30
2024-04-06T16:05:41.532Z,10.00
2024-04-06T16:08:13.308Z,4.70
2024-04-06T16:10:44.046Z,6.70
2024-04-06T16:13:15.901Z,5.40
2024-04-06T16:15:46.411Z,6.50
2024-04-06T16:18:18.079Z,3.70
2024-04-06T16:20:48.700Z,7.50
2024-04-06T16:23:20.357Z,7.70
2024-04-06T16:25:50.677Z,7.20
2024-04-06T16:28:22.564Z,10.50
2024-04-06T16:30:54.402Z,7.90
2024-04-06T16:33:29.335Z,5.80
2024-04-06T16:36:02.011Z,9.80
2024-04-06T16:38:32.645Z,8.70
2024-04-06T16:41:04.496Z,8.20
2024-04-06T16:43:34.826Z,9.60
2024-04-06T16:46:06.479Z,14.10
2024-04-06T16:48:37.010Z,14.30
2024-04-06T16:51:09.906Z,13.80
2024-04-06T16:53:42.271Z,12.50
2024-04-06T16:56:14.029Z,14.90
2024-04-06T16:58:45.360Z,12.60
2024-04-06T17:01:17.033Z,17.30
2024-04-06T17:03:47.967Z,12.60
2024-04-06T17:06:19.631Z,14.00
2024-04-06T17:08:51.282Z,12.50
2024-04-06T17:11:22.840Z,29.40
2024-04-06T17:13:53.371Z,27.80
2024-04-06T17:16:25.313Z,30.00
2024-04-06T17:18:56.673Z,25.30
2024-04-06T17:21:28.326Z,14.90
2024-04-06T17:23:58.855Z,16.90
2024-04-06T17:26:30.614Z,19.40
2024-04-06T17:29:01.107Z,23.70
2024-04-06T17:31:32.751Z,21.50
2024-04-06T17:34:03.437Z,17.60
2024-04-06T17:36:35.305Z,19.90
2024-04-06T17:39:06.590Z,19.40
2024-04-06T17:41:39.609Z,18.40
2024-04-06T17:44:10.922Z,18.60
2024-04-06T17:46:43.244Z,18.50
2024-04-06T17:49:13.671Z,45.30
2024-04-06T17:51:45.740Z,93.20
2024-04-06T17:54:16.470Z,80.00
2024-04-06T17:56:48.345Z,77.70
2024-04-06T17:59:18.668Z,30.10
2024-04-06T18:01:50.524Z,28.00
2024-04-06T18:04:20.841Z,26.90
2024-04-06T18:06:52.718Z,15.80
2024-04-06T18:09:24.164Z,42.10
2024-04-06T18:11:56.855Z,17.70
2024-04-06T18:14:29.094Z,15.10
2024-04-06T18:17:01.366Z,21.60
2024-04-06T18:19:32.229Z,20.40
2024-04-06T18:22:04.779Z,19.20
2024-04-06T18:24:35.618Z,21.30
2024-04-06T18:27:07.066Z,20.80
2024-04-06T18:29:37.907Z,25.20
2024-04-06T18:32:09.657Z,29.60
2024-04-06T18:34:43.674Z,25.70
2024-04-06T18:37:15.947Z,48.90
2024-04-06T18:39:50.360Z,21.10
2024-04-06T18:42:22.528Z,18.10
2024-04-06T18:44:53.058Z,22.70
2024-04-06T18:47:24.613Z,14.30
2024-04-06T18:49:55.460Z,17.70
2024-04-06T18:52:27.112Z,11.40
2024-04-06T18:54:57.630Z,10.90
2024-04-06T18:57:29.073Z,9.80
2024-04-06T18:59:59.611Z,11.00
2024-04-06T19:02:31.178Z,11.40
2024-04-06T19:05:01.795Z,10.50
2024-04-06T19:07:33.279Z,7.00
2024-04-06T19:10:03.987Z,11.60
2024-04-06T19:12:35.439Z,11.10
2024-04-06T19:15:07.504Z,16.80
2024-04-06T19:17:39.046Z,16.00
2024-04-06T19:20:13.232Z,16.70
2024-04-06T19:22:44.913Z,14.80
2024-04-06T19:25:15.441Z,21.40
2024-04-06T19:27:47.208Z,18.20
2024-04-06T19:30:17.626Z,19.90
2024-04-06T19:32:49.431Z,21.60
2024-04-06T19:35:20.131Z,20.70
2024-04-06T19:37:51.889Z,16.90
2024-04-06T19:40:22.321Z,18.60
2024-04-06T19:42:53.960Z,14.20
2024-04-06T19:45:24.394Z,12.40
2024-04-06T19:47:55.949Z,16.20
2024-04-06T19:50:26.507Z,12.80
2024-04-06T19:52:58.127Z,9.20
2024-04-06T19:55:29.504Z,12.00
2024-04-06T19:58:01.542Z,9.30
2024-04-06T20:00:31.869Z,17.30
2024-04-06T20:03:05.193Z,69.50
2024-04-06T20:05:36.722Z,46.60
2024-04-06T20:08:10.324Z,38.10
2024-04-06T20:10:41.449Z,26.10
2024-04-06T20:13:13.209Z,20.20
2024-04-06T20:15:43.759Z,19.50
2024-04-06T20:18:17.866Z,14.10
2024-04-06T20:20:48.075Z,16.40
2024-04-06T20:26:15.151Z,9.90
2024-04-06T20:28:47.015Z,11.40
2024-04-06T20:33:49.500Z,14.30
2024-04-06T20:36:20.128Z,10.80
2024-04-06T20:38:52.607Z,13.10
2024-04-06T20:41:23.136Z,17.40
2024-04-06T20:43:54.692Z,13.80
2024-04-06T20:46:25.519Z,12.40
2024-04-06T20:48:56.966Z,11.40
2024-04-06T20:51:27.502Z,13.80
2024-04-06T20:53:58.953Z,10.20
2024-04-06T20:56:29.479Z,11.60
2024-04-06T20:59:00.928Z,14.70
2024-04-06T21:01:31.571Z,16.60
2024-04-06T21:04:04.756Z,11.90
2024-04-06T21:06:35.384Z,14.50
2024-04-06T21:09:07.565Z,13.90
2024-04-06T21:11:38.185Z,12.50
2024-04-06T21:14:09.631Z,12.70
2024-04-06T21:16:40.281Z,10.10
2024-04-06T21:19:11.713Z,9.50
2024-04-06T21:21:44.803Z,9.80
2024-04-06T21:24:16.659Z,10.60
2024-04-06T21:26:47.747Z,11.40
2024-04-06T21:29:19.966Z,15.10
2024-04-06T21:31:51.015Z,12.30
2024-04-06T21:34:22.680Z,12.10
2024-04-06T21:36:54.158Z,11.70
2024-04-06T21:39:25.776Z,13.70
2024-04-06T21:41:56.513Z,10.50
2024-04-06T21:44:29.205Z,8.50
2024-04-06T21:46:59.820Z,9.60
2024-04-06T21:49:31.588Z,10.00
2024-04-06T21:52:01.997Z,10.90
2024-04-06T21:54:33.757Z,10.50
2024-04-06T21:57:04.427Z,9.80
2024-04-06T21:59:36.768Z,10.80
2024-04-06T22:02:10.458Z,12.70
2024-04-06T22:04:42.474Z,10.40
2024-04-06T22:07:14.042Z,11.50
2024-04-06T22:09:46.161Z,10.40
2024-04-06T22:12:16.266Z,13.80
2024-04-06T22:14:48.233Z,11.20
2024-04-06T22:17:18.870Z,18.60
2024-04-06T22:19:50.727Z,13.60
2024-04-06T22:22:21.151Z,11.50
2024-04-06T22:24:52.808Z,13.00
2024-04-06T22:27:23.233Z,12.70
2024-04-06T22:29:55.199Z,13.90
2024-04-06T22:32:25.419Z,13.50
2024-04-06T22:34:57.082Z,12.30
2024-04-06T22:37:32.005Z,14.20
2024-04-06T22:40:04.789Z,13.50
2024-04-06T22:42:35.318Z,14.20
2024-04-06T22:45:07.382Z,17.10
2024-04-06T22:47:37.597Z,16.00
2024-04-06T22:50:09.871Z,16.50
2024-04-06T22:52:40.218Z,17.00
2024-04-06T22:55:12.062Z,17.10
2024-04-06T22:57:42.794Z,19.60
2024-04-06T23:00:15.573Z,20.60
2024-04-06T23:02:46.033Z,21.80
2024-04-06T23:05:18.478Z,23.10
2024-04-06T23:07:48.909Z,16.30
2024-04-06T23:10:20.661Z,18.40
2024-04-06T23:12:51.807Z,19.30
2024-04-06T23:15:23.488Z,20.40
2024-04-06T23:17:54.083Z,19.70
2024-04-06T23:20:25.847Z,21.40
2024-04-06T23:22:56.269Z,17.10
2024-04-06T23:25:28.024Z,17.40
2024-04-06T23:27:58.368Z,18.30
2024-04-06T23:30:30.004Z,17.40
2024-04-06T23:33:00.534Z,17.70
2024-04-06T23:35:32.200Z,16.60
2024-04-06T23:38:02.840Z,20.20
2024-04-06T23:40:40.736Z,18.30
2024-04-06T23:43:12.485Z,16.00
2024-04-06T23:45:42.924Z,15.30
2024-04-06T23:48:15.186Z,16.20
2024-04-06T23:50:56.057Z,18.00
2024-04-06T23:53:28.113Z,17.40
2024-04-06T23:55:58.540Z,18.10
2024-04-06T23:58:29.996Z,15.80
